< < Back
Terminal Aerodrome Forecast


Current Version              Previous Versions:   1  2  3  4  5  6  7  8  9  

Terminal Aerodrome Forecast

835
FTUS42 KFFC 210500 RRA
TAFMCN
TAF
KMCN 210542Z 2106/2206 00000KT 6SM BR FEW120
      TEMPO 2109/2113 4SM BR
     FM211500 30005KT P6SM FEW250
     FM211800 32008G14KT P6SM FEW250
     FM220000 32004KT P6SM SKC=

Latest METAR

689
SAUS80 KWBC 212100 CCA
MTRMCN
METAR KMCN 212053Z 29011G15KT 10SM CLR 26/09 A2992 RMK AO2 SLP128
T02610094 56017


USA.gov is the U.S. government's official web portal to all federal, state and local government web resources and services.